createdAt,value
2022-08-11T00:00:06.391Z,1.90
2022-08-11T00:02:38.570Z,2.05
2022-08-11T00:05:07.836Z,1.60
2022-08-11T00:07:42.481Z,2.00
2022-08-11T00:10:14.814Z,1.77
2022-08-11T00:12:43.384Z,1.80
2022-08-11T00:15:11.198Z,1.80
2022-08-11T00:17:38.758Z,1.50
2022-08-11T00:20:13.977Z,1.67
2022-08-11T00:22:46.712Z,1.80
2022-08-11T00:25:19.799Z,1.45
2022-08-11T00:27:47.909Z,1.83
2022-08-11T00:30:15.983Z,1.80
2022-08-11T00:32:45.508Z,1.80
2022-08-11T00:35:54.227Z,2.05
2022-08-11T00:38:04.950Z,2.15
2022-08-11T00:40:41.707Z,1.58
2022-08-11T00:43:20.252Z,1.75
2022-08-11T00:46:25.340Z,1.80
2022-08-11T00:49:00.815Z,1.67
2022-08-11T00:52:05.360Z,1.70
2022-08-11T00:54:38.782Z,1.92
2022-08-11T00:57:37.097Z,1.50
2022-08-11T01:00:19.683Z,1.95
2022-08-11T01:03:24.083Z,1.95
2022-08-11T01:06:04.519Z,1.70
2022-08-11T01:08:40.171Z,1.83
2022-08-11T01:11:15.625Z,1.63
2022-08-11T01:13:54.762Z,1.70
2022-08-11T01:17:04.803Z,1.85
2022-08-11T01:20:38.743Z,1.67
2022-08-11T01:23:17.458Z,1.60
2022-08-11T01:26:14.838Z,1.77
2022-08-11T01:29:02.905Z,2.08
2022-08-11T01:31:45.816Z,1.95
2022-08-11T01:34:27.331Z,1.60
2022-08-11T01:37:15.169Z,1.77
2022-08-11T01:39:57.165Z,1.70
2022-08-11T01:42:45.514Z,1.80
2022-08-11T01:45:41.685Z,1.75
2022-08-11T01:48:20.862Z,2.67
2022-08-11T01:51:16.720Z,1.73
2022-08-11T01:54:04.574Z,1.60
2022-08-11T01:56:52.881Z,1.60
2022-08-11T01:59:23.219Z,1.92
2022-08-11T02:02:43.451Z,2.10
2022-08-11T02:05:26.354Z,1.60
2022-08-11T02:08:16.746Z,1.98
2022-08-11T02:11:22.135Z,1.80
2022-08-11T02:13:53.547Z,1.83
2022-08-11T02:16:36.827Z,1.70
2022-08-11T02:19:35.738Z,1.90
2022-08-11T02:22:39.957Z,1.60
2022-08-11T02:25:18.792Z,1.70
2022-08-11T02:27:57.384Z,2.67
2022-08-11T02:30:29.745Z,1.90
2022-08-11T02:33:23.649Z,1.80
2022-08-11T02:36:19.722Z,1.77
2022-08-11T02:38:51.542Z,2.47
2022-08-11T02:42:01.723Z,1.77
2022-08-11T02:44:44.904Z,1.40
2022-08-11T02:47:38.326Z,1.80
2022-08-11T02:50:21.002Z,1.77
2022-08-11T02:52:53.690Z,2.38
2022-08-11T02:55:57.597Z,1.70
2022-08-11T02:59:14.605Z,1.77
2022-08-11T03:01:49.332Z,1.42
2022-08-11T03:04:37.694Z,1.80
2022-08-11T03:07:28.932Z,2.88
2022-08-11T03:10:24.472Z,1.75
2022-08-11T03:13:43.982Z,2.05
2022-08-11T03:16:39.965Z,1.50
2022-08-11T03:19:28.424Z,1.80
2022-08-11T03:22:12.302Z,1.85
2022-08-11T15:25:55.401Z,1.38
2022-08-11T15:28:41.995Z,1.30
2022-08-11T15:31:27.170Z,1.00
2022-08-11T15:34:19.859Z,1.17
2022-08-11T15:37:08.140Z,1.20
2022-08-11T15:40:30.099Z,1.30
2022-08-11T15:43:35.307Z,1.10
2022-08-11T15:46:11.368Z,1.38
2022-08-11T15:48:48.452Z,1.10
2022-08-11T15:51:25.705Z,1.27
2022-08-11T15:53:56.767Z,1.13
2022-08-11T15:56:31.834Z,1.15
2022-08-11T15:59:43.226Z,1.30
2022-08-11T16:02:17.602Z,1.15
2022-08-11T16:04:48.611Z,1.75
2022-08-11T16:07:27.064Z,0.90
2022-08-11T16:10:00.539Z,1.40
2022-08-11T16:12:35.519Z,1.60
2022-08-11T16:15:25.137Z,1.10
2022-08-11T16:17:57.605Z,1.10
2022-08-11T16:20:27.046Z,1.23
2022-08-11T16:23:01.829Z,1.13
2022-08-11T16:26:30.580Z,1.30
2022-08-11T16:28:22.137Z,1.00
2022-08-11T16:30:51.054Z,1.00
2022-08-11T16:33:49.008Z,1.33
2022-08-11T16:36:28.229Z,1.52
2022-08-11T16:38:59.441Z,1.20
2022-08-11T16:41:47.748Z,1.20
2022-08-11T16:44:37.542Z,1.25
2022-08-11T16:47:12.099Z,1.10
2022-08-11T16:49:44.225Z,1.23
2022-08-11T16:52:19.696Z,1.35
2022-08-11T16:54:47.702Z,1.25
2022-08-11T16:57:46.016Z,1.05
2022-08-11T17:00:16.068Z,1.10
2022-08-11T17:03:11.101Z,1.10
2022-08-11T17:06:02.954Z,1.15
2022-08-11T17:08:57.121Z,0.95
2022-08-11T17:11:46.384Z,1.20
2022-08-11T17:14:35.579Z,1.00
2022-08-11T17:17:13.546Z,1.00
2022-08-11T17:20:40.172Z,1.10
2022-08-11T17:22:59.847Z,1.10
2022-08-11T17:25:32.357Z,1.00
2022-08-11T17:28:21.472Z,0.95
2022-08-11T17:31:21.980Z,1.20
2022-08-11T17:34:09.036Z,1.50
2022-08-11T17:36:38.499Z,1.17
2022-08-11T17:39:09.133Z,0.82
2022-08-11T17:41:58.462Z,1.20
2022-08-11T17:44:45.577Z,1.00
2022-08-11T17:47:45.940Z,1.30
2022-08-11T17:50:17.793Z,1.10
2022-08-11T17:53:05.377Z,1.30
2022-08-11T17:55:53.841Z,1.50
2022-08-11T17:58:40.404Z,1.25
2022-08-11T18:01:10.891Z,1.27
2022-08-11T18:03:40.846Z,1.10
2022-08-11T18:06:12.556Z,1.50
2022-08-11T18:09:02.694Z,1.30
2022-08-11T18:12:09.826Z,1.30
2022-08-11T18:14:57.802Z,1.13
2022-08-11T18:17:43.042Z,1.27
2022-08-11T18:20:28.807Z,1.33
2022-08-11T18:23:16.451Z,1.60
2022-08-11T18:26:07.325Z,1.30
2022-08-11T18:29:05.204Z,1.38
2022-08-11T18:31:56.587Z,1.30
2022-08-11T18:34:54.459Z,1.30
2022-08-11T18:37:53.882Z,1.40
2022-08-11T18:40:46.250Z,1.60
2022-08-11T18:43:35.462Z,1.17
2022-08-11T18:46:25.145Z,1.27
2022-08-11T18:49:15.762Z,1.13
2022-08-11T18:52:08.749Z,1.02
2022-08-11T18:54:57.527Z,1.10
2022-08-11T18:57:50.128Z,1.10
2022-08-11T19:00:42.415Z,1.45
2022-08-11T19:03:30.998Z,1.15
2022-08-11T19:06:39.504Z,1.20
2022-08-11T19:09:29.134Z,1.25
2022-08-11T19:12:15.307Z,1.10
2022-08-11T19:15:03.551Z,1.13
2022-08-11T19:17:51.502Z,1.25
2022-08-11T19:20:39.884Z,1.15
2022-08-11T19:23:27.620Z,1.20
2022-08-11T19:26:14.275Z,1.30
2022-08-11T19:29:02.199Z,1.38
2022-08-11T19:31:48.637Z,1.00
2022-08-11T19:34:40.520Z,0.90
2022-08-11T19:37:27.258Z,1.30
2022-08-11T19:40:20.037Z,1.20
2022-08-11T19:43:14.899Z,1.05
2022-08-11T19:46:16.747Z,1.10
2022-08-11T19:49:04.012Z,1.15
2022-08-11T19:51:53.663Z,1.10
2022-08-11T19:54:44.045Z,1.00
2022-08-11T19:57:33.405Z,1.20
2022-08-11T20:00:30.116Z,1.08
2022-08-11T20:03:16.649Z,1.00
2022-08-11T20:06:02.724Z,1.23
2022-08-11T20:11:36.555Z,1.50
2022-08-11T20:14:23.805Z,1.30
2022-08-11T20:17:12.711Z,1.35
2022-08-11T20:22:48.554Z,1.30
2022-08-11T20:25:36.358Z,1.40
2022-08-11T20:28:24.281Z,1.30
2022-08-11T20:31:12.189Z,1.45
2022-08-11T20:33:59.473Z,1.45
2022-08-11T20:36:52.509Z,1.40
2022-08-11T20:39:42.066Z,1.30
2022-08-11T20:42:30.482Z,1.40
2022-08-11T20:45:18.809Z,1.30
2022-08-11T20:48:14.756Z,1.48
2022-08-11T20:51:07.267Z,1.30
2022-08-11T20:53:57.897Z,1.30
2022-08-11T20:56:46.110Z,1.70
2022-08-11T20:59:38.497Z,1.58
2022-08-11T21:02:36.045Z,1.30
2022-08-11T21:06:08.223Z,1.58
2022-08-11T21:08:28.527Z,1.50
2022-08-11T21:11:14.356Z,1.58
2022-08-11T21:14:13.931Z,1.27
2022-08-11T21:20:15.531Z,1.30
2022-08-11T21:23:24.091Z,1.48
2022-08-11T21:26:15.531Z,1.30
2022-08-11T21:29:02.531Z,1.70
2022-08-11T21:31:50.792Z,1.40
2022-08-11T21:34:39.949Z,1.60
2022-08-11T21:37:26.794Z,1.42
2022-08-11T21:40:17.893Z,1.65
2022-08-11T21:43:05.887Z,1.50
2022-08-11T21:45:55.696Z,1.85
2022-08-11T21:48:45.415Z,1.70
2022-08-11T21:51:31.177Z,1.55
2022-08-11T21:54:19.065Z,1.60
2022-08-11T21:57:05.846Z,1.85
2022-08-11T22:00:07.296Z,1.55
2022-08-11T22:03:01.308Z,1.60
2022-08-11T22:05:50.509Z,1.60
2022-08-11T22:08:36.541Z,1.40
2022-08-11T22:11:31.754Z,1.70
2022-08-11T22:14:20.042Z,2.17
2022-08-11T22:17:05.554Z,1.65
2022-08-11T22:19:53.419Z,1.75
2022-08-11T22:22:52.127Z,1.60
2022-08-11T22:25:51.662Z,1.35
2022-08-11T22:28:40.686Z,1.35
2022-08-11T22:31:27.487Z,1.38
2022-08-11T22:34:12.734Z,1.65
2022-08-11T22:37:03.763Z,1.63
2022-08-11T22:39:59.652Z,1.75
2022-08-11T22:42:49.720Z,1.70
2022-08-11T22:45:35.138Z,1.50
2022-08-11T22:48:23.980Z,1.40
2022-08-11T22:51:10.679Z,2.53
2022-08-11T22:53:59.137Z,1.63
2022-08-11T22:56:49.747Z,1.73
2022-08-11T22:59:37.132Z,1.63
2022-08-11T23:02:23.864Z,1.50
2022-08-11T23:05:10.160Z,1.80
2022-08-11T23:07:57.400Z,1.40
2022-08-11T23:10:44.147Z,2.17
2022-08-11T23:13:30.007Z,1.70
2022-08-11T23:16:17.013Z,1.48
2022-08-11T23:19:03.697Z,1.95
2022-08-11T23:21:50.533Z,2.03
2022-08-11T23:24:36.812Z,1.80
2022-08-11T23:27:24.356Z,1.50
2022-08-11T23:30:13.418Z,1.67
2022-08-11T23:33:04.363Z,1.77
2022-08-11T23:35:56.764Z,1.70
2022-08-11T23:38:46.650Z,2.05
2022-08-11T23:41:33.088Z,1.77
2022-08-11T23:44:20.209Z,1.67
2022-08-11T23:47:08.421Z,1.60
2022-08-11T23:49:58.346Z,1.65
2022-08-11T23:52:45.655Z,1.55
2022-08-11T23:55:31.433Z,1.77
2022-08-11T23:58:16.693Z,1.63
